Time;durP1;ratioP1;P1;durP2;ratioP2;P2;SDS_P1;SDS_P2;PMS_P1;PMS_P2;Temp;Humidity;BMP_temperature;BMP_pressure;BME280_temperature;BME280_humidity;BME280_pressure;Samples;Min_cycle;Max_cycle;Signal;HPM_P1;HPM_P2
2024/01/23 00:01:23;;;;;;;16.15;2.65;;;;;;;6.09;100.00;101385.38;5071336;28;20045;-48
2024/01/23 00:03:51;;;;;;;18.40;3.40;;;;;;;6.10;100.00;101394.06;5068767;28;20044;-48
2024/01/23 00:06:22;;;;;;;19.55;2.72;;;;;;;6.09;100.00;101394.94;5073009;28;20056;-46
2024/01/23 00:08:52;;;;;;;23.13;3.35;;;;;;;6.12;100.00;101394.81;5075800;28;20072;-48
2024/01/23 00:11:21;;;;;;;18.27;2.83;;;;;;;6.08;100.00;101395.84;5075486;28;20045;-49
2024/01/23 00:13:49;;;;;;;16.50;2.83;;;;;;;6.06;100.00;101401.13;5075421;28;20052;-54
2024/01/23 00:16:19;;;;;;;19.27;2.80;;;;;;;6.05;100.00;101403.81;5075499;28;20127;-54
2024/01/23 00:18:47;;;;;;;19.73;3.20;;;;;;;6.04;100.00;101405.59;5075577;28;20110;-51
2024/01/23 00:21:16;;;;;;;22.77;3.30;;;;;;;6.04;100.00;101418.66;5075741;28;20040;-55
2024/01/23 00:23:44;;;;;;;23.85;3.67;;;;;;;6.03;100.00;101410.88;5075371;28;20045;-53
2024/01/23 00:26:12;;;;;;;31.02;3.97;;;;;;;6.05;100.00;101417.75;5075580;28;20049;-54
2024/01/23 00:28:40;;;;;;;18.92;3.40;;;;;;;6.03;100.00;101414.31;5073431;28;20099;-54
2024/01/23 00:31:08;;;;;;;20.65;3.95;;;;;;;6.02;100.00;101441.34;5071667;28;20476;-54
2024/01/23 00:33:38;;;;;;;18.48;3.47;;;;;;;5.99;100.00;101440.63;5072247;28;20478;-53
2024/01/23 00:36:06;;;;;;;22.17;3.22;;;;;;;6.00;100.00;101443.16;5075406;28;20071;-53
2024/01/23 00:38:35;;;;;;;22.02;3.63;;;;;;;6.02;100.00;101445.72;5075509;28;20080;-54
2024/01/23 00:41:03;;;;;;;17.80;3.22;;;;;;;6.05;100.00;101453.44;5075245;28;20113;-54
2024/01/23 00:43:31;;;;;;;16.92;3.15;;;;;;;6.01;100.00;101455.31;5072669;28;20057;-54
2024/01/23 00:45:59;;;;;;;17.98;2.30;;;;;;;5.99;100.00;101462.34;5071350;28;20083;-53
2024/01/23 00:48:27;;;;;;;18.48;2.80;;;;;;;5.97;100.00;101466.75;5072356;28;20045;-55
2024/01/23 00:50:57;;;;;;;21.67;3.35;;;;;;;5.99;100.00;101477.16;5073982;28;20484;-53
2024/01/23 00:53:25;;;;;;;17.65;3.10;;;;;;;5.94;100.00;101479.91;5072076;28;20049;-55
2024/01/23 00:55:53;;;;;;;16.80;3.33;;;;;;;5.92;100.00;101484.34;5071925;28;20049;-55
2024/01/23 00:58:24;;;;;;;20.40;3.08;;;;;;;5.95;100.00;101488.59;5071853;28;20499;-54
2024/01/23 01:00:52;;;;;;;17.27;2.67;;;;;;;5.93;100.00;101499.06;5071823;28;20084;-54
2024/01/23 01:03:20;;;;;;;17.08;3.30;;;;;;;5.94;100.00;101500.78;5074781;28;20137;-54
2024/01/23 01:05:49;;;;;;;22.20;3.50;;;;;;;5.95;100.00;101504.25;5073245;28;20040;-54
2024/01/23 01:08:19;;;;;;;18.05;2.92;;;;;;;5.92;100.00;101503.44;5071567;28;20044;-54
2024/01/23 01:10:47;;;;;;;17.27;2.55;;;;;;;5.88;100.00;101514.91;5073852;28;20040;-55
2024/01/23 01:13:16;;;;;;;23.17;4.05;;;;;;;5.97;100.00;101526.81;5074489;28;20117;-54
2024/01/23 01:15:44;;;;;;;20.73;3.05;;;;;;;5.91;100.00;101521.78;5068834;28;20052;-55
2024/01/23 01:18:12;;;;;;;14.43;2.28;;;;;;;5.87;100.00;101514.97;5072260;28;20048;-55
2024/01/23 01:20:41;;;;;;;20.75;2.70;;;;;;;5.84;100.00;101526.34;5072389;28;20384;-53
2024/01/23 01:23:09;;;;;;;28.38;3.95;;;;;;;5.84;100.00;101535.97;5071095;28;20495;-54
2024/01/23 01:25:43;;;;;;;21.17;2.75;;;;;;;5.81;100.00;101536.03;5073409;28;20403;-55
2024/01/23 01:28:12;;;;;;;21.42;3.60;;;;;;;5.82;100.00;101541.25;5070557;28;20087;-55
2024/01/23 01:30:43;;;;;;;22.20;3.53;;;;;;;5.83;100.00;101547.31;5070216;28;20511;-54
2024/01/23 01:33:12;;;;;;;21.98;3.67;;;;;;;5.81;100.00;101542.13;5070638;28;20059;-54
2024/01/23 01:35:40;;;;;;;20.50;3.30;;;;;;;5.81;100.00;101547.34;5069944;28;20127;-54
2024/01/23 01:38:09;;;;;;;18.63;3.15;;;;;;;5.82;100.00;101551.69;5069613;28;20052;-53
2024/01/23 01:40:38;;;;;;;20.15;3.58;;;;;;;5.77;100.00;101550.97;5071045;28;20071;-53
2024/01/23 01:43:06;;;;;;;21.67;2.78;;;;;;;5.74;100.00;101561.53;5073914;28;20051;-53
2024/01/23 01:45:35;;;;;;;18.75;3.40;;;;;;;5.68;100.00;101561.72;5074289;28;20074;-54
2024/01/23 01:48:03;;;;;;;20.75;3.00;;;;;;;5.64;100.00;101560.13;5074167;28;20115;-54
2024/01/23 01:50:32;;;;;;;18.88;2.78;;;;;;;5.62;100.00;101559.28;5070378;28;20400;-54
2024/01/23 01:53:01;;;;;;;17.02;2.83;;;;;;;5.56;100.00;101565.56;5070537;28;20055;-55
2024/01/23 01:55:29;;;;;;;16.02;3.00;;;;;;;5.53;100.00;101565.69;5070735;28;20048;-52
2024/01/23 01:57:59;;;;;;;19.92;2.55;;;;;;;5.51;100.00;101564.91;5070008;28;20044;-53
2024/01/23 02:00:27;;;;;;;19.83;3.13;;;;;;;5.46;100.00;101570.25;5070642;28;20049;-54
2024/01/23 02:02:55;;;;;;;17.10;2.97;;;;;;;5.41;100.00;101574.75;5070074;28;20098;-54
2024/01/23 02:05:23;;;;;;;20.67;2.63;;;;;;;5.35;100.00;101583.63;5073644;28;20071;-55
2024/01/23 02:07:52;;;;;;;17.13;3.17;;;;;;;5.34;100.00;101592.34;5072569;28;20485;-57
2024/01/23 02:10:22;;;;;;;17.35;2.85;;;;;;;5.35;100.00;101604.50;5073752;28;20047;-53
2024/01/23 02:12:51;;;;;;;25.90;3.40;;;;;;;5.30;100.00;101614.22;5071276;28;20041;-56
2024/01/23 02:15:22;;;;;;;17.95;3.25;;;;;;;5.22;100.00;101611.84;5069301;28;20110;-54
2024/01/23 02:17:51;;;;;;;21.63;2.72;;;;;;;5.19;100.00;101617.16;5072731;28;20056;-54
2024/01/23 02:20:19;;;;;;;17.20;2.83;;;;;;;5.14;100.00;101626.88;5072273;28;20049;-51
2024/01/23 02:22:47;;;;;;;19.20;3.17;;;;;;;5.10;100.00;101632.22;5070520;28;20044;-52
2024/01/23 02:25:17;;;;;;;21.25;3.00;;;;;;;5.06;100.00;101644.50;5069949;28;20049;-52
2024/01/23 02:27:45;;;;;;;15.55;3.92;;;;;;;5.04;100.00;101643.69;5069980;28;20056;-45
2024/01/23 02:30:14;;;;;;;21.50;2.83;;;;;;;5.01;100.00;101651.59;5069530;28;20032;-51
2024/01/23 02:32:44;;;;;;;23.05;3.22;;;;;;;4.98;100.00;101664.75;5072617;28;20063;-48
2024/01/23 02:35:13;;;;;;;17.95;3.10;;;;;;;4.95;100.00;101665.69;5069521;28;20497;-46
2024/01/23 02:37:42;;;;;;;19.70;3.25;;;;;;;4.95;100.00;101657.84;5071535;28;20052;-49
2024/01/23 02:40:11;;;;;;;17.33;2.42;;;;;;;4.90;100.00;101660.56;5073096;28;20507;-46
2024/01/23 02:42:40;;;;;;;25.80;4.07;;;;;;;4.84;100.00;101667.72;5073229;28;20133;-46
2024/01/23 02:45:09;;;;;;;18.02;3.15;;;;;;;4.83;100.00;101672.09;5073159;28;20090;-46
2024/01/23 02:47:37;;;;;;;20.27;3.08;;;;;;;4.80;100.00;101686.94;5071898;28;20101;-45
2024/01/23 02:50:07;;;;;;;18.85;2.90;;;;;;;4.79;100.00;101678.28;5072794;28;20102;-44
2024/01/23 02:52:35;;;;;;;20.05;3.33;;;;;;;4.80;100.00;101684.34;5072813;28;20044;-49
2024/01/23 02:55:13;;;;;;;15.05;3.40;;;;;;;4.83;100.00;101686.88;5071618;28;20430;-51
2024/01/23 02:57:49;;;;;;;17.13;3.17;;;;;;;4.80;100.00;101685.22;5071658;28;20098;-51
2024/01/23 03:00:18;;;;;;;22.45;3.40;;;;;;;4.80;100.00;101695.63;5072739;28;20056;-51
2024/01/23 03:02:49;;;;;;;15.70;3.20;;;;;;;4.79;100.00;101696.53;5072504;28;20048;-50
2024/01/23 03:05:17;;;;;;;19.25;2.72;;;;;;;4.80;100.00;101703.44;5072487;28;20812;-49
2024/01/23 03:07:47;;;;;;;19.65;3.80;;;;;;;4.77;100.00;101702.66;5072577;28;20040;-49
2024/01/23 03:10:16;;;;;;;18.98;2.85;;;;;;;4.77;100.00;101706.13;5071454;28;20105;-49
2024/01/23 03:12:45;;;;;;;24.83;3.55;;;;;;;4.79;100.00;101703.50;5069227;28;20037;-48
2024/01/23 03:15:15;;;;;;;20.15;3.70;;;;;;;4.79;100.00;101711.31;5070311;28;20057;-49
2024/01/23 03:17:43;;;;;;;20.63;2.83;;;;;;;4.80;100.00;101705.19;5072266;28;20140;-46
2024/01/23 03:20:12;;;;;;;20.50;3.40;;;;;;;4.82;100.00;101719.03;5072083;28;20101;-44
2024/01/23 03:22:44;;;;;;;24.38;3.88;;;;;;;4.83;100.00;101721.59;5071969;28;20376;-46
2024/01/23 03:25:12;;;;;;;16.17;2.90;;;;;;;4.83;100.00;101724.22;5072209;28;20119;-49
2024/01/23 03:27:40;;;;;;;19.92;3.70;;;;;;;4.86;100.00;101729.34;5070799;28;20037;-46
2024/01/23 03:30:24;;;;;;;20.83;3.70;;;;;;;4.87;100.00;101731.06;5072356;28;20044;-47
2024/01/23 03:32:54;;;;;;;17.58;2.55;;;;;;;4.89;100.00;101738.81;5072111;28;20048;-51
2024/01/23 03:35:22;;;;;;;21.92;2.97;;;;;;;4.89;100.00;101742.31;5071172;28;20075;-54
2024/01/23 03:37:50;;;;;;;17.45;3.08;;;;;;;4.90;100.00;101746.59;5069226;28;20051;-54
2024/01/23 03:40:21;;;;;;;20.42;3.58;;;;;;;4.95;100.00;101749.09;5067046;28;20098;-53
2024/01/23 03:42:49;;;;;;;20.05;3.05;;;;;;;4.93;100.00;101756.09;5100695;28;20421;-54
2024/01/23 03:45:17;;;;;;;25.45;3.60;;;;;;;4.93;100.00;101768.28;5068485;28;20048;-54
2024/01/23 03:47:46;;;;;;;12.70;2.53;;;;;;;4.89;100.00;101768.38;5068541;28;20067;-54
2024/01/23 03:50:16;;;;;;;13.13;2.63;;;;;;;4.86;100.00;101781.47;5072117;28;20379;-54
2024/01/23 03:52:44;;;;;;;21.65;3.92;;;;;;;4.83;100.00;101778.94;5070741;28;20055;-53
2024/01/23 03:55:12;;;;;;;18.63;3.15;;;;;;;4.86;100.00;101781.47;5072087;28;20515;-56
2024/01/23 03:57:40;;;;;;;20.95;2.92;;;;;;;4.82;100.00;101786.81;5072033;28;20123;-54
2024/01/23 04:00:10;;;;;;;19.40;3.30;;;;;;;4.85;100.00;101792.81;5071865;28;20063;-54
2024/01/23 04:02:39;;;;;;;21.35;2.90;;;;;;;4.84;100.00;101803.25;5071179;28;20076;-52
2024/01/23 04:05:08;;;;;;;19.08;3.45;;;;;;;4.87;100.00;101806.66;5071850;28;20044;-53
2024/01/23 04:07:38;;;;;;;20.42;3.70;;;;;;;4.86;100.00;101809.31;5070716;28;20190;-54
2024/01/23 04:10:09;;;;;;;22.33;2.75;;;;;;;4.86;100.00;101811.91;5071788;28;20054;-54
2024/01/23 04:12:37;;;;;;;18.98;2.85;;;;;;;4.87;100.00;101814.47;5071610;28;20124;-53
2024/01/23 04:15:07;;;;;;;19.40;3.10;;;;;;;4.86;100.00;101815.34;5071657;28;20553;-54
2024/01/23 04:17:35;;;;;;;22.75;3.53;;;;;;;4.85;100.00;101821.50;5070083;28;20072;-55
2024/01/23 04:20:04;;;;;;;19.67;4.03;;;;;;;4.81;100.00;101827.63;5067731;28;20049;-53
2024/01/23 04:22:33;;;;;;;22.17;2.78;;;;;;;4.80;100.00;101831.16;5068427;28;20130;-53
2024/01/23 04:25:03;;;;;;;22.27;2.70;;;;;;;4.80;100.00;101846.81;5068412;28;20098;-55
2024/01/23 04:27:32;;;;;;;17.23;3.38;;;;;;;4.80;100.00;101843.31;5069232;28;20052;-53
2024/01/23 04:30:00;;;;;;;15.50;3.17;;;;;;;4.76;100.00;101855.59;5071549;28;20139;-52
2024/01/23 04:32:28;;;;;;;17.63;2.60;;;;;;;4.74;100.00;101857.38;5071518;28;20048;-52
2024/01/23 04:34:56;;;;;;;16.90;3.13;;;;;;;4.74;100.00;101863.47;5068465;28;20057;-53
2024/01/23 04:37:24;;;;;;;22.13;2.95;;;;;;;4.70;100.00;101869.63;5068821;28;20206;-54
2024/01/23 04:39:52;;;;;;;18.30;2.83;;;;;;;4.72;100.00;101875.66;5071603;28;20076;-53
2024/01/23 04:42:22;;;;;;;22.48;3.42;;;;;;;4.67;100.00;101884.47;5071872;28;20043;-54
2024/01/23 04:44:50;;;;;;;19.40;3.30;;;;;;;4.64;100.00;101884.56;5069203;28;20499;-55
2024/01/23 04:47:18;;;;;;;23.55;3.50;;;;;;;4.62;100.00;101881.13;5067428;28;20578;-54
2024/01/23 04:49:47;;;;;;;21.48;3.13;;;;;;;4.62;100.00;101892.41;5066543;28;20051;-54
2024/01/23 04:52:15;;;;;;;19.70;3.35;;;;;;;4.62;100.00;101894.16;5070655;28;20060;-53
2024/01/23 04:54:43;;;;;;;14.98;2.75;;;;;;;4.63;100.00;101908.91;5071888;28;20044;-53
2024/01/23 04:57:13;;;;;;;16.27;2.95;;;;;;;4.61;100.00;101908.94;5073077;28;20036;-54
2024/01/23 04:59:43;;;;;;;21.80;3.28;;;;;;;4.60;100.00;101906.38;5075179;28;20376;-54
2024/01/23 05:02:11;;;;;;;24.73;3.67;;;;;;;4.57;100.00;101920.31;5071282;28;20048;-53
2024/01/23 05:04:40;;;;;;;23.38;3.55;;;;;;;4.57;100.00;101931.59;5071544;28;20609;-52
2024/01/23 05:07:08;;;;;;;22.90;3.17;;;;;;;4.60;100.00;101940.25;5074962;28;20094;-55
2024/01/23 05:09:36;;;;;;;21.20;3.10;;;;;;;4.59;100.00;101946.34;5074919;28;20067;-55
2024/01/23 05:12:05;;;;;;;19.13;3.40;;;;;;;4.63;100.00;101938.41;5072739;28;20052;-52
2024/01/23 05:14:33;;;;;;;18.83;2.90;;;;;;;4.59;100.00;101946.34;5070337;28;20055;-52
2024/01/23 05:17:03;;;;;;;22.80;3.60;;;;;;;4.62;100.00;101948.88;5074422;28;20044;-53
2024/01/23 05:19:31;;;;;;;21.70;3.53;;;;;;;4.62;100.00;101954.97;5073445;28;20053;-53
2024/01/23 05:21:59;;;;;;;19.58;2.83;;;;;;;4.61;100.00;101970.59;5074618;28;20123;-55
2024/01/23 05:24:27;;;;;;;24.25;3.25;;;;;;;4.63;100.00;101976.66;5074428;28;20059;-55
2024/01/23 05:26:55;;;;;;;14.88;2.78;;;;;;;4.62;100.00;101978.41;5074379;28;20411;-54
2024/01/23 05:29:26;;;;;;;24.55;3.70;;;;;;;4.63;100.00;101979.25;5074506;28;20123;-54
2024/01/23 05:31:55;;;;;;;18.98;3.10;;;;;;;4.62;100.00;101978.41;5074514;28;20391;-46
2024/01/23 05:34:25;;;;;;;19.85;3.20;;;;;;;4.65;100.00;101987.88;5074502;28;20518;-54
2024/01/23 05:36:53;;;;;;;15.50;2.75;;;;;;;4.67;100.00;101986.13;5074259;28;20060;-55
2024/01/23 05:39:21;;;;;;;17.30;2.83;;;;;;;4.72;100.00;102002.50;5074377;28;20040;-54
2024/01/23 05:41:49;;;;;;;15.93;2.75;;;;;;;4.67;100.00;102006.97;5074409;28;20071;-55
2024/01/23 05:44:21;;;;;;;18.90;2.88;;;;;;;4.68;100.00;102012.13;5073568;28;20040;-51
2024/01/23 05:46:49;;;;;;;18.58;2.47;;;;;;;4.64;100.00;102015.69;5072663;28;20045;-54
2024/01/23 05:49:17;;;;;;;15.93;2.88;;;;;;;4.68;100.00;102011.28;5070154;28;20048;-56
2024/01/23 05:51:47;;;;;;;19.95;3.03;;;;;;;4.66;100.00;102020.88;5072804;28;20510;-53
2024/01/23 05:54:15;;;;;;;23.30;2.95;;;;;;;4.64;100.00;102020.06;5074037;28;20043;-52
2024/01/23 05:56:43;;;;;;;25.23;3.35;;;;;;;4.63;100.00;102019.19;5070969;28;20520;-54
2024/01/23 05:59:11;;;;;;;15.13;2.80;;;;;;;4.60;100.00;102034.06;5070303;28;20051;-54
2024/01/23 06:01:40;;;;;;;16.45;3.17;;;;;;;4.61;100.00;102031.41;5069846;28;20055;-52
2024/01/23 06:04:08;;;;;;;21.38;3.30;;;;;;;4.61;100.00;102030.53;5071938;28;20040;-53
2024/01/23 06:06:40;;;;;;;20.90;3.33;;;;;;;4.60;100.00;102034.06;5073817;28;20200;-51
2024/01/23 06:09:13;;;;;;;14.68;2.50;;;;;;;4.54;100.00;102041.09;5072347;28;20048;-51
2024/01/23 06:11:41;;;;;;;23.52;3.80;;;;;;;4.56;100.00;102044.50;5073677;28;20496;-52
2024/01/23 06:14:09;;;;;;;28.13;4.03;;;;;;;4.53;100.00;102049.81;5073376;28;20044;-53
2024/01/23 06:16:38;;;;;;;16.52;3.00;;;;;;;4.53;100.00;102054.16;5073743;28;20064;-53
2024/01/23 06:19:08;;;;;;;21.90;3.28;;;;;;;4.48;100.00;102061.22;5073711;28;20067;-51
2024/01/23 06:21:36;;;;;;;20.17;3.10;;;;;;;4.48;100.00;102087.25;5070605;28;20048;-55
2024/01/23 06:24:06;;;;;;;21.35;3.10;;;;;;;4.44;100.00;102081.25;5070455;28;20583;-53
2024/01/23 06:26:35;;;;;;;15.40;3.42;;;;;;;4.43;100.00;102097.78;5073671;28;20405;-53
2024/01/23 06:29:04;;;;;;;21.80;5.05;;;;;;;4.38;100.00;102097.84;5073123;28;20385;-53
2024/01/23 06:31:32;;;;;;;22.25;3.50;;;;;;;4.35;100.00;102107.47;5073244;28;20522;-56
2024/01/23 06:34:01;;;;;;;18.20;2.67;;;;;;;4.29;100.00;102113.66;5072576;28;20499;-53
2024/01/23 06:36:31;;;;;;;20.50;2.92;;;;;;;4.27;100.00;102119.78;5072524;28;20105;-54
2024/01/23 06:38:59;;;;;;;17.48;2.90;;;;;;;4.25;100.00;102119.81;5072858;28;20079;-52
2024/01/23 06:41:27;;;;;;;20.45;3.55;;;;;;;4.18;100.00;102116.44;5071046;28;20433;-53
2024/01/23 06:43:57;;;;;;;17.80;3.03;;;;;;;4.14;100.00;102125.19;5069249;28;20854;-53
2024/01/23 06:46:25;;;;;;;17.75;2.95;;;;;;;4.11;100.00;102130.47;5069069;28;20560;-52
2024/01/23 06:48:55;;;;;;;12.77;2.30;;;;;;;4.05;100.00;102133.19;5069670;28;20127;-53
2024/01/23 06:51:24;;;;;;;16.90;3.83;;;;;;;4.01;100.00;102142.78;5072379;28;20072;-52
2024/01/23 06:53:52;;;;;;;16.73;3.17;;;;;;;3.95;100.00;102137.69;5069120;28;20515;-52
2024/01/23 06:56:20;;;;;;;22.30;3.55;;;;;;;3.88;100.00;102131.72;5069572;28;20607;-53
2024/01/23 06:58:48;;;;;;;16.38;3.00;;;;;;;3.87;100.00;102131.75;5069058;28;20051;-54
2024/01/23 07:01:18;;;;;;;15.52;3.08;;;;;;;3.87;100.00;102131.75;5068807;28;20131;-54
2024/01/23 07:03:46;;;;;;;21.13;4.22;;;;;;;3.84;100.00;102126.59;5068960;28;20113;-53
2024/01/23 07:06:14;;;;;;;24.10;4.10;;;;;;;3.77;100.00;102122.38;5069415;28;20037;-53
2024/01/23 07:08:44;;;;;;;17.40;3.10;;;;;;;3.73;100.00;102124.16;5068916;28;20450;-50
2024/01/23 07:11:12;;;;;;;17.67;2.92;;;;;;;3.72;100.00;102135.44;5071034;28;20385;-53
2024/01/23 07:13:41;;;;;;;21.85;3.13;;;;;;;3.73;100.00;102138.03;5068173;28;20102;-51
2024/01/23 07:16:09;;;;;;;21.60;3.15;;;;;;;3.69;100.00;102146.75;5068544;28;20131;-50
2024/01/23 07:18:38;;;;;;;17.17;3.38;;;;;;;3.68;100.00;102162.41;5070219;28;20040;-49
2024/01/23 07:21:07;;;;;;;21.65;3.13;;;;;;;3.68;100.00;102152.00;5070330;28;20109;-52
2024/01/23 07:23:35;;;;;;;16.40;3.15;;;;;;;3.61;100.00;102143.41;5068988;28;20046;-51
2024/01/23 07:26:03;;;;;;;23.23;2.58;;;;;;;3.59;100.00;102152.16;5068823;28;20040;-53
2024/01/23 07:28:32;;;;;;;19.83;3.63;;;;;;;3.59;100.00;102162.56;5069124;28;20044;-52
2024/01/23 07:31:20;;;;;;;17.80;2.78;;;;;;;3.54;100.00;102179.09;5072396;28;20123;-52
2024/01/23 07:33:51;;;;;;;21.40;3.22;;;;;;;3.51;100.00;102181.72;5072218;28;20454;-53
2024/01/23 07:36:19;;;;;;;13.43;2.38;;;;;;;3.49;100.00;102188.72;5069673;28;20543;-52
2024/01/23 07:38:47;;;;;;;24.83;2.90;;;;;;;3.45;100.00;102183.56;5069007;28;20105;-54
2024/01/23 07:41:16;;;;;;;20.27;2.50;;;;;;;3.45;100.00;102192.22;5069253;28;20056;-54
2024/01/23 07:43:44;;;;;;;20.38;3.60;;;;;;;3.45;100.00;102206.97;5070751;28;20498;-53
2024/01/23 07:46:12;;;;;;;17.05;3.20;;;;;;;3.43;100.00;102206.97;5068213;28;20045;-54
2024/01/23 07:48:43;;;;;;;18.83;3.78;;;;;;;3.40;100.00;102214.84;5068666;28;20037;-53
2024/01/23 07:51:12;;;;;;;25.13;3.90;;;;;;;3.41;100.00;102210.47;5068776;28;20131;-55
2024/01/23 07:53:43;;;;;;;23.05;3.22;;;;;;;3.38;100.00;102217.47;5068428;28;20047;-52
2024/01/23 07:56:11;;;;;;;17.52;2.92;;;;;;;3.38;100.00;102221.78;5068777;28;20419;-52
2024/01/23 07:58:40;;;;;;;16.48;2.53;;;;;;;3.36;100.00;102227.00;5068618;28;20076;-55
2024/01/23 08:01:08;;;;;;;15.18;3.10;;;;;;;3.35;100.00;102222.72;5067997;28;20101;-47
2024/01/23 08:03:36;;;;;;;20.58;3.33;;;;;;;3.38;100.00;102227.88;5071568;28;20045;-46
2024/01/23 08:06:05;;;;;;;13.95;2.95;;;;;;;3.38;100.00;102235.66;5071913;28;20047;-47
2024/01/23 08:08:35;;;;;;;25.92;2.85;;;;;;;3.42;100.00;102243.44;5071255;28;20045;-48
2024/01/23 08:11:03;;;;;;;18.35;3.05;;;;;;;3.44;100.00;102252.09;5071496;28;20048;-51
2024/01/23 08:13:31;;;;;;;23.52;3.40;;;;;;;3.41;100.00;102255.59;5070270;28;20045;-48
2024/01/23 08:16:00;;;;;;;16.75;3.42;;;;;;;3.46;100.00;102250.31;5069936;28;20133;-47
2024/01/23 08:18:29;;;;;;;18.73;2.90;;;;;;;3.46;100.00;102260.72;5071846;28;20040;-46
2024/01/23 08:20:57;;;;;;;22.23;3.30;;;;;;;3.49;100.00;102266.75;5071623;28;20369;-49
2024/01/23 08:23:25;;;;;;;17.25;2.75;;;;;;;3.54;100.00;102254.56;5071723;28;20136;-47
2024/01/23 08:25:55;;;;;;;19.73;2.90;;;;;;;3.58;100.00;102257.09;5073573;28;20040;-46
2024/01/23 08:28:24;;;;;;;18.13;3.28;;;;;;;3.63;100.00;102256.16;5072748;28;20059;-46
2024/01/23 08:30:52;;;;;;;21.63;3.40;;;;;;;3.68;100.00;102261.28;5071721;28;20498;-47
2024/01/23 08:33:22;;;;;;;19.33;3.60;;;;;;;3.80;100.00;102266.31;5075597;28;20072;-47
2024/01/23 08:35:52;;;;;;;22.13;3.55;;;;;;;3.84;100.00;102246.31;5075442;28;20040;-45
2024/01/23 08:38:20;;;;;;;19.42;3.35;;;;;;;3.98;100.00;102265.22;5075566;28;20048;-48
2024/01/23 08:40:48;;;;;;;21.75;4.00;;;;;;;4.05;100.00;102271.19;5075316;28;20495;-47
2024/01/23 08:43:18;;;;;;;19.10;3.05;;;;;;;4.14;100.00;102276.22;5075536;28;20044;-48
2024/01/23 08:45:46;;;;;;;17.38;3.28;;;;;;;4.28;100.00;102290.78;5075474;28;20167;-48
2024/01/23 08:48:14;;;;;;;16.67;3.40;;;;;;;4.32;100.00;102290.75;5075554;28;20124;-46
2024/01/23 08:50:43;;;;;;;20.35;3.50;;;;;;;4.40;100.00;102295.81;5075457;28;20040;-45
2024/01/23 08:53:11;;;;;;;24.27;3.58;;;;;;;4.47;100.00;102297.44;5075413;28;20059;-46
2024/01/23 08:55:39;;;;;;;21.73;3.65;;;;;;;4.59;100.00;102296.38;5073944;28;20113;-46
2024/01/23 08:58:08;;;;;;;20.17;3.35;;;;;;;4.62;100.00;102300.66;5075264;28;20485;-46
2024/01/23 09:00:38;;;;;;;19.38;4.00;;;;;;;4.68;100.00;102308.41;5075067;28;20045;-48
2024/01/23 09:03:06;;;;;;;16.40;3.00;;;;;;;4.74;100.00;102295.25;5075100;28;20131;-45
2024/01/23 09:05:35;;;;;;;19.73;3.50;;;;;;;4.81;100.00;102298.59;5075277;28;20056;-48
2024/01/23 09:08:11;;;;;;;17.50;3.33;;;;;;;4.89;100.00;102304.53;5075172;28;20650;-49
2024/01/23 09:10:42;;;;;;;18.65;3.63;;;;;;;4.96;100.00;102300.06;5071808;28;20479;-47
2024/01/23 09:13:10;;;;;;;22.88;2.90;;;;;;;5.03;100.00;102304.28;5071291;28;20083;-49
2024/01/23 09:15:40;;;;;;;23.27;3.13;;;;;;;5.09;100.00;102301.56;5071148;28;20127;-47
2024/01/23 09:18:08;;;;;;;20.92;3.53;;;;;;;5.15;100.00;102288.41;5072929;28;20507;-47
2024/01/23 09:20:36;;;;;;;23.15;3.60;;;;;;;5.21;100.00;102292.66;5074900;28;20048;-46
2024/01/23 09:23:05;;;;;;;17.63;3.78;;;;;;;5.27;100.00;102295.13;5074705;28;20097;-45
2024/01/23 09:25:33;;;;;;;24.60;3.75;;;;;;;5.30;100.00;102296.81;5074640;28;20519;-47
2024/01/23 09:28:01;;;;;;;19.98;3.90;;;;;;;5.35;100.00;102305.44;5074599;28;20415;-50
2024/01/23 09:30:29;;;;;;;17.13;3.45;;;;;;;5.44;100.00;102315.69;5074666;28;20087;-48
2024/01/23 09:33:00;;;;;;;18.92;3.90;;;;;;;5.46;100.00;102311.28;5072206;28;20458;-47
2024/01/23 09:35:29;;;;;;;25.30;3.65;;;;;;;5.49;100.00;102324.25;5070460;28;20532;-47
2024/01/23 09:37:57;;;;;;;17.58;3.47;;;;;;;5.55;100.00;102324.16;5073669;28;20040;-46
2024/01/23 09:40:25;;;;;;;23.52;3.65;;;;;;;5.63;100.00;102323.13;5073093;28;20412;-56
2024/01/23 09:42:57;;;;;;;20.48;3.08;;;;;;;5.68;100.00;102314.31;5070378;28;20048;-55
2024/01/23 09:45:28;;;;;;;19.10;2.85;;;;;;;5.74;100.00;102308.97;5072649;28;20127;-55
2024/01/23 09:47:57;;;;;;;21.17;3.00;;;;;;;5.84;100.00;102314.84;5070609;28;20419;-54
2024/01/23 09:50:28;;;;;;;21.10;3.05;;;;;;;5.93;100.00;102327.69;5069925;28;20040;-54
2024/01/23 09:53:00;;;;;;;23.35;3.63;;;;;;;6.02;100.00;102341.47;5070680;28;20044;-53
2024/01/23 09:55:28;;;;;;;17.98;3.28;;;;;;;6.07;100.00;102327.41;5070572;28;20080;-54
2024/01/23 09:57:58;;;;;;;23.58;3.75;;;;;;;6.15;100.00;102334.22;5070373;28;20040;-54
2024/01/23 10:00:29;;;;;;;16.20;3.13;;;;;;;6.18;100.00;102340.25;5070242;28;20051;-55
2024/01/23 10:02:58;;;;;;;23.55;3.30;;;;;;;6.30;100.00;102340.84;5069856;28;20048;-55
2024/01/23 10:05:27;;;;;;;22.05;4.15;;;;;;;6.35;100.00;102339.00;5071089;28;20043;-53
2024/01/23 10:07:56;;;;;;;23.98;3.78;;;;;;;6.52;100.00;102341.22;5071851;28;20476;-52
2024/01/23 10:10:25;;;;;;;23.30;3.97;;;;;;;6.63;100.00;102346.19;5070453;28;20563;-55
2024/01/23 10:12:53;;;;;;;18.23;2.88;;;;;;;6.69;100.00;102349.47;5073167;28;20139;-54
2024/01/23 10:15:22;;;;;;;21.38;3.70;;;;;;;6.86;100.00;102350.84;5073526;28;20405;-55
2024/01/23 10:17:53;;;;;;;30.23;3.67;;;;;;;6.92;100.00;102353.28;5072568;28;20238;-54
2024/01/23 10:20:22;;;;;;;26.92;3.53;;;;;;;6.88;100.00;102357.72;5069464;28;20145;-54
2024/01/23 10:22:51;;;;;;;18.10;3.60;;;;;;;6.79;100.00;102357.97;5071023;28;20044;-54
2024/01/23 10:25:20;;;;;;;24.98;3.92;;;;;;;6.88;100.00;102357.72;5070408;28;20135;-55
2024/01/23 10:27:56;;;;;;;26.50;4.40;;;;;;;6.86;100.00;102354.31;5073084;28;20041;-55
2024/01/23 10:30:24;;;;;;;27.10;3.90;;;;;;;6.90;100.00;102342.88;5073472;28;20475;-55
2024/01/23 10:32:53;;;;;;;15.55;3.08;;;;;;;6.90;100.00;102340.25;5071272;28;20052;-55
2024/01/23 10:35:21;;;;;;;24.63;3.90;;;;;;;6.94;100.00;102328.81;5069001;28;20402;-54
2024/01/23 10:37:53;;;;;;;17.85;3.55;;;;;;;6.91;100.00;102325.41;5072315;28;20045;-55
2024/01/23 10:40:23;;;;;;;23.35;4.03;;;;;;;6.99;100.00;102325.22;5073370;28;20094;-56
2024/01/23 10:42:52;;;;;;;21.85;4.03;;;;;;;7.03;100.00;102324.22;5073812;28;20048;-55
2024/01/23 10:45:21;;;;;;;26.75;4.10;;;;;;;7.05;100.00;102333.75;5073114;28;20487;-55
2024/01/23 10:47:51;;;;;;;21.80;4.13;;;;;;;7.11;100.00;102345.81;5072219;28;20491;-53
2024/01/23 10:50:21;;;;;;;17.88;3.53;;;;;;;7.13;100.00;102330.94;5069067;28;20579;-53
2024/01/23 10:52:51;;;;;;;19.85;4.05;;;;;;;7.13;100.00;102325.72;5069967;28;20056;-54
2024/01/23 10:55:22;;;;;;;22.67;3.45;;;;;;;7.17;100.00;102345.66;5070722;28;20048;-54
2024/01/23 10:57:53;;;;;;;20.00;3.50;;;;;;;7.22;100.00;102342.91;5073003;28;20423;-54
2024/01/23 11:00:23;;;;;;;20.00;4.18;;;;;;;7.31;100.00;102334.81;5072897;28;20404;-55
2024/01/23 11:02:56;;;;;;;16.05;3.58;;;;;;;7.32;100.00;102338.28;5071530;28;20049;-52
2024/01/23 11:05:29;;;;;;;20.40;3.28;;;;;;;7.35;100.00;102333.81;5072741;28;20051;-55
2024/01/23 11:08:07;;;;;;;22.23;3.92;;;;;;;7.36;100.00;102316.34;5071456;28;20043;-55
2024/01/23 11:10:45;;;;;;;22.40;3.85;;;;;;;7.44;100.00;102317.00;5069432;28;20044;-54
2024/01/23 11:13:35;;;;;;;22.05;3.72;;;;;;;7.48;100.00;102323.84;5071400;28;20045;-54
2024/01/23 11:16:06;;;;;;;22.42;3.45;;;;;;;7.47;100.00;102326.53;5071953;28;20136;-55
2024/01/23 11:18:35;;;;;;;21.83;3.95;;;;;;;7.51;100.00;102330.75;5072597;28;20127;-57
2024/01/23 11:21:14;;;;;;;19.52;4.20;;;;;;;7.43;100.00;102317.88;5072314;28;20051;-55
2024/01/23 11:23:45;;;;;;;23.60;3.47;;;;;;;7.52;100.00;102309.78;5072640;28;20127;-56
2024/01/23 11:26:19;;;;;;;22.60;3.58;;;;;;;7.45;100.00;102303.84;5069389;28;20048;-54